sensor_id;sensor_type;location;lat;lon;timestamp;P1;durP1;ratioP1;P2;durP2;ratioP2
10729;SDS011;5416;59.258;18.128;2022-07-10T00:01:35;4.05;;;3.95;;
10729;SDS011;5416;59.258;18.128;2022-07-10T00:04:03;5.00;;;4.80;;
10729;SDS011;5416;59.258;18.128;2022-07-10T00:06:30;4.22;;;4.13;;
10729;SDS011;5416;59.258;18.128;2022-07-10T00:08:59;4.88;;;4.68;;
10729;SDS011;5416;59.258;18.128;2022-07-10T00:11:26;4.65;;;4.50;;
10729;SDS011;5416;59.258;18.128;2022-07-10T00:13:53;4.00;;;3.90;;
10729;SDS011;5416;59.258;18.128;2022-07-10T00:16:20;4.53;;;4.43;;
10729;SDS011;5416;59.258;18.128;2022-07-10T00:18:49;4.07;;;3.97;;
10729;SDS011;5416;59.258;18.128;2022-07-10T00:21:16;4.40;;;4.30;;
10729;SDS011;5416;59.258;18.128;2022-07-10T00:23:44;4.10;;;4.00;;
10729;SDS011;5416;59.258;18.128;2022-07-10T00:26:12;4.37;;;4.27;;
10729;SDS011;5416;59.258;18.128;2022-07-10T00:28:39;4.10;;;4.00;;
10729;SDS011;5416;59.258;18.128;2022-07-10T00:31:07;4.30;;;4.20;;
10729;SDS011;5416;59.258;18.128;2022-07-10T00:33:35;4.97;;;4.78;;
10729;SDS011;5416;59.258;18.128;2022-07-10T00:36:03;4.40;;;4.30;;
10729;SDS011;5416;59.258;18.128;2022-07-10T00:38:30;3.75;;;3.65;;
10729;SDS011;5416;59.258;18.128;2022-07-10T00:40:57;4.13;;;4.03;;
10729;SDS011;5416;59.258;18.128;2022-07-10T00:43:26;4.37;;;4.27;;
10729;SDS011;5416;59.258;18.128;2022-07-10T00:45:53;4.38;;;4.28;;
10729;SDS011;5416;59.258;18.128;2022-07-10T00:48:21;4.20;;;4.10;;
10729;SDS011;5416;59.258;18.128;2022-07-10T00:50:48;4.90;;;4.70;;
10729;SDS011;5416;59.258;18.128;2022-07-10T00:53:16;4.03;;;3.92;;
10729;SDS011;5416;59.258;18.128;2022-07-10T00:55:43;4.50;;;4.38;;
10729;SDS011;5416;59.258;18.128;2022-07-10T00:58:11;4.40;;;4.30;;
10729;SDS011;5416;59.258;18.128;2022-07-10T01:00:40;4.13;;;4.03;;
10729;SDS011;5416;59.258;18.128;2022-07-10T01:03:07;4.17;;;4.07;;
10729;SDS011;5416;59.258;18.128;2022-07-10T01:05:34;4.20;;;4.10;;
10729;SDS011;5416;59.258;18.128;2022-07-10T01:08:02;4.18;;;4.07;;
10729;SDS011;5416;59.258;18.128;2022-07-10T01:10:29;4.10;;;4.00;;
10729;SDS011;5416;59.258;18.128;2022-07-10T01:12:56;3.47;;;3.38;;
10729;SDS011;5416;59.258;18.128;2022-07-10T01:15:24;4.53;;;4.43;;
10729;SDS011;5416;59.258;18.128;2022-07-10T01:17:52;4.20;;;4.10;;
10729;SDS011;5416;59.258;18.128;2022-07-10T01:20:20;3.42;;;3.33;;
10729;SDS011;5416;59.258;18.128;2022-07-10T01:22:49;4.40;;;4.30;;
10729;SDS011;5416;59.258;18.128;2022-07-10T01:25:16;4.03;;;3.92;;
10729;SDS011;5416;59.258;18.128;2022-07-10T01:27:44;3.65;;;3.55;;
10729;SDS011;5416;59.258;18.128;2022-07-10T01:30:11;4.03;;;3.92;;
10729;SDS011;5416;59.258;18.128;2022-07-10T01:32:38;4.18;;;4.07;;
10729;SDS011;5416;59.258;18.128;2022-07-10T01:35:06;4.20;;;4.10;;
10729;SDS011;5416;59.258;18.128;2022-07-10T01:37:34;4.03;;;3.92;;
10729;SDS011;5416;59.258;18.128;2022-07-10T01:40:03;3.85;;;3.75;;
10729;SDS011;5416;59.258;18.128;2022-07-10T01:42:30;4.03;;;3.92;;
10729;SDS011;5416;59.258;18.128;2022-07-10T01:44:58;4.20;;;4.10;;
10729;SDS011;5416;59.258;18.128;2022-07-10T01:47:25;3.90;;;3.80;;
10729;SDS011;5416;59.258;18.128;2022-07-10T01:49:53;4.85;;;4.68;;
10729;SDS011;5416;59.258;18.128;2022-07-10T01:52:20;4.43;;;4.32;;
10729;SDS011;5416;59.258;18.128;2022-07-10T01:54:48;3.80;;;3.70;;
10729;SDS011;5416;59.258;18.128;2022-07-10T01:57:16;4.78;;;4.57;;
10729;SDS011;5416;59.258;18.128;2022-07-10T01:59:44;4.20;;;4.10;;
10729;SDS011;5416;59.258;18.128;2022-07-10T02:02:11;4.30;;;4.20;;
10729;SDS011;5416;59.258;18.128;2022-07-10T02:04:38;4.20;;;4.10;;
10729;SDS011;5416;59.258;18.128;2022-07-10T02:07:07;3.65;;;3.55;;
10729;SDS011;5416;59.258;18.128;2022-07-10T02:09:35;4.38;;;4.28;;
10729;SDS011;5416;59.258;18.128;2022-07-10T02:12:02;4.03;;;3.92;;
10729;SDS011;5416;59.258;18.128;2022-07-10T02:14:31;4.10;;;4.00;;
10729;SDS011;5416;59.258;18.128;2022-07-10T02:16:58;4.38;;;4.28;;
10729;SDS011;5416;59.258;18.128;2022-07-10T02:19:26;3.90;;;3.80;;
10729;SDS011;5416;59.258;18.128;2022-07-10T02:21:53;3.97;;;3.88;;
10729;SDS011;5416;59.258;18.128;2022-07-10T02:24:20;4.35;;;4.25;;
10729;SDS011;5416;59.258;18.128;2022-07-10T02:26:48;3.80;;;3.70;;
10729;SDS011;5416;59.258;18.128;2022-07-10T02:29:15;4.65;;;4.50;;
10729;SDS011;5416;59.258;18.128;2022-07-10T02:31:44;4.30;;;4.20;;
10729;SDS011;5416;59.258;18.128;2022-07-10T02:34:11;4.30;;;4.20;;
10729;SDS011;5416;59.258;18.128;2022-07-10T02:36:39;4.60;;;4.47;;
10729;SDS011;5416;59.258;18.128;2022-07-10T02:39:07;3.75;;;3.65;;
10729;SDS011;5416;59.258;18.128;2022-07-10T02:41:35;4.68;;;4.50;;
10729;SDS011;5416;59.258;18.128;2022-07-10T02:44:02;3.83;;;3.72;;
10729;SDS011;5416;59.258;18.128;2022-07-10T02:46:29;4.10;;;4.00;;
10729;SDS011;5416;59.258;18.128;2022-07-10T02:48:58;4.45;;;4.35;;
10729;SDS011;5416;59.258;18.128;2022-07-10T02:51:25;4.13;;;4.03;;
10729;SDS011;5416;59.258;18.128;2022-07-10T02:53:52;4.63;;;4.47;;
10729;SDS011;5416;59.258;18.128;2022-07-10T02:56:20;3.92;;;3.83;;
10729;SDS011;5416;59.258;18.128;2022-07-10T02:58:47;4.05;;;3.95;;
10729;SDS011;5416;59.258;18.128;2022-07-10T03:01:14;4.70;;;4.50;;
10729;SDS011;5416;59.258;18.128;2022-07-10T03:03:42;4.10;;;4.00;;
10729;SDS011;5416;59.258;18.128;2022-07-10T03:06:10;4.22;;;4.13;;
10729;SDS011;5416;59.258;18.128;2022-07-10T03:08:37;4.03;;;3.92;;
10729;SDS011;5416;59.258;18.128;2022-07-10T03:11:05;4.82;;;4.63;;
10729;SDS011;5416;59.258;18.128;2022-07-10T03:13:32;4.05;;;3.95;;
10729;SDS011;5416;59.258;18.128;2022-07-10T03:15:59;3.90;;;3.80;;
10729;SDS011;5416;59.258;18.128;2022-07-10T03:18:26;4.85;;;4.65;;
10729;SDS011;5416;59.258;18.128;2022-07-10T03:20:54;4.33;;;4.23;;
10729;SDS011;5416;59.258;18.128;2022-07-10T03:23:22;3.67;;;3.58;;
10729;SDS011;5416;59.258;18.128;2022-07-10T03:25:51;4.38;;;4.28;;
10729;SDS011;5416;59.258;18.128;2022-07-10T03:28:18;3.78;;;3.67;;
10729;SDS011;5416;59.258;18.128;2022-07-10T03:30:45;4.15;;;4.05;;
10729;SDS011;5416;59.258;18.128;2022-07-10T03:33:13;3.75;;;3.65;;
10729;SDS011;5416;59.258;18.128;2022-07-10T03:35:40;4.30;;;4.20;;
10729;SDS011;5416;59.258;18.128;2022-07-10T03:38:07;4.75;;;4.55;;
10729;SDS011;5416;59.258;18.128;2022-07-10T03:40:36;3.73;;;3.63;;
10729;SDS011;5416;59.258;18.128;2022-07-10T03:43:04;4.32;;;4.22;;
10729;SDS011;5416;59.258;18.128;2022-07-10T03:45:31;4.10;;;4.00;;
10729;SDS011;5416;59.258;18.128;2022-07-10T03:47:58;4.07;;;3.97;;
10729;SDS011;5416;59.258;18.128;2022-07-10T03:50:25;4.00;;;3.90;;
10729;SDS011;5416;59.258;18.128;2022-07-10T03:52:53;4.30;;;4.20;;
10729;SDS011;5416;59.258;18.128;2022-07-10T03:55:20;4.55;;;4.45;;
10729;SDS011;5416;59.258;18.128;2022-07-10T03:57:49;4.03;;;3.93;;
10729;SDS011;5416;59.258;18.128;2022-07-10T04:00:22;4.63;;;4.50;;
10729;SDS011;5416;59.258;18.128;2022-07-10T04:02:54;3.85;;;3.75;;
10729;SDS011;5416;59.258;18.128;2022-07-10T04:05:22;4.35;;;4.25;;
10729;SDS011;5416;59.258;18.128;2022-07-10T04:07:50;4.20;;;4.10;;
10729;SDS011;5416;59.258;18.128;2022-07-10T04:10:19;4.00;;;3.90;;
10729;SDS011;5416;59.258;18.128;2022-07-10T04:12:48;4.82;;;4.63;;
10729;SDS011;5416;59.258;18.128;2022-07-10T04:15:16;4.40;;;4.30;;
10729;SDS011;5416;59.258;18.128;2022-07-10T04:17:43;4.85;;;4.65;;
10729;SDS011;5416;59.258;18.128;2022-07-10T04:20:10;3.83;;;3.72;;
10729;SDS011;5416;59.258;18.128;2022-07-10T04:22:38;4.50;;;4.40;;
10729;SDS011;5416;59.258;18.128;2022-07-10T04:25:06;4.32;;;4.22;;
10729;SDS011;5416;59.258;18.128;2022-07-10T04:27:33;4.45;;;4.35;;
10729;SDS011;5416;59.258;18.128;2022-07-10T04:30:02;4.63;;;4.50;;
10729;SDS011;5416;59.258;18.128;2022-07-10T04:32:30;4.43;;;4.33;;
10729;SDS011;5416;59.258;18.128;2022-07-10T04:34:57;4.97;;;4.78;;
10729;SDS011;5416;59.258;18.128;2022-07-10T04:37:26;4.43;;;4.32;;
10729;SDS011;5416;59.258;18.128;2022-07-10T04:39:53;4.30;;;4.20;;
10729;SDS011;5416;59.258;18.128;2022-07-10T04:42:20;4.95;;;4.75;;
10729;SDS011;5416;59.258;18.128;2022-07-10T04:44:48;4.40;;;4.30;;
10729;SDS011;5416;59.258;18.128;2022-07-10T04:47:17;4.50;;;4.40;;
10729;SDS011;5416;59.258;18.128;2022-07-10T04:49:44;4.87;;;4.67;;
10729;SDS011;5416;59.258;18.128;2022-07-10T04:52:11;4.40;;;4.30;;
10729;SDS011;5416;59.258;18.128;2022-07-10T04:54:39;4.57;;;4.47;;
10729;SDS011;5416;59.258;18.128;2022-07-10T04:57:06;4.40;;;4.30;;
10729;SDS011;5416;59.258;18.128;2022-07-10T04:59:33;4.30;;;4.20;;
10729;SDS011;5416;59.258;18.128;2022-07-10T05:02:01;4.25;;;4.15;;
10729;SDS011;5416;59.258;18.128;2022-07-10T05:04:29;4.20;;;4.10;;
10729;SDS011;5416;59.258;18.128;2022-07-10T05:06:57;3.92;;;3.83;;
10729;SDS011;5416;59.258;18.128;2022-07-10T05:09:24;4.30;;;4.20;;
10729;SDS011;5416;59.258;18.128;2022-07-10T05:11:51;4.22;;;4.13;;
10729;SDS011;5416;59.258;18.128;2022-07-10T05:14:18;4.55;;;4.45;;
10729;SDS011;5416;59.258;18.128;2022-07-10T05:16:46;4.30;;;4.20;;
10729;SDS011;5416;59.258;18.128;2022-07-10T05:19:14;4.20;;;4.10;;
10729;SDS011;5416;59.258;18.128;2022-07-10T05:21:42;4.38;;;4.28;;
10729;SDS011;5416;59.258;18.128;2022-07-10T05:24:10;4.00;;;3.90;;
10729;SDS011;5416;59.258;18.128;2022-07-10T05:26:37;4.00;;;3.90;;
10729;SDS011;5416;59.258;18.128;2022-07-10T05:29:04;3.90;;;3.80;;
10729;SDS011;5416;59.258;18.128;2022-07-10T05:31:32;4.50;;;4.40;;
10729;SDS011;5416;59.258;18.128;2022-07-10T05:33:59;4.03;;;3.92;;
10729;SDS011;5416;59.258;18.128;2022-07-10T05:36:26;3.90;;;3.80;;
10729;SDS011;5416;59.258;18.128;2022-07-10T05:38:55;4.50;;;4.40;;
10729;SDS011;5416;59.258;18.128;2022-07-10T05:41:22;4.13;;;4.03;;
10729;SDS011;5416;59.258;18.128;2022-07-10T05:43:49;4.23;;;4.13;;
10729;SDS011;5416;59.258;18.128;2022-07-10T05:46:17;4.30;;;4.20;;
10729;SDS011;5416;59.258;18.128;2022-07-10T05:48:44;4.15;;;4.05;;
10729;SDS011;5416;59.258;18.128;2022-07-10T05:51:11;4.50;;;4.40;;
10729;SDS011;5416;59.258;18.128;2022-07-10T05:53:38;4.35;;;4.25;;
10729;SDS011;5416;59.258;18.128;2022-07-10T05:56:07;4.15;;;4.05;;
10729;SDS011;5416;59.258;18.128;2022-07-10T05:58:34;4.00;;;3.90;;
10729;SDS011;5416;59.258;18.128;2022-07-10T06:01:02;4.10;;;4.00;;
10729;SDS011;5416;59.258;18.128;2022-07-10T06:03:29;4.00;;;3.90;;
10729;SDS011;5416;59.258;18.128;2022-07-10T06:05:57;4.40;;;4.30;;
10729;SDS011;5416;59.258;18.128;2022-07-10T06:08:25;4.28;;;4.18;;
10729;SDS011;5416;59.258;18.128;2022-07-10T06:10:52;4.15;;;4.05;;
10729;SDS011;5416;59.258;18.128;2022-07-10T06:13:21;4.28;;;4.18;;
10729;SDS011;5416;59.258;18.128;2022-07-10T06:15:48;4.57;;;4.45;;
10729;SDS011;5416;59.258;18.128;2022-07-10T06:18:15;3.92;;;3.83;;
10729;SDS011;5416;59.258;18.128;2022-07-10T06:20:42;4.23;;;4.13;;
10729;SDS011;5416;59.258;18.128;2022-07-10T06:23:10;4.18;;;4.07;;
10729;SDS011;5416;59.258;18.128;2022-07-10T06:25:37;4.20;;;4.10;;
10729;SDS011;5416;59.258;18.128;2022-07-10T06:28:04;4.18;;;4.07;;
10729;SDS011;5416;59.258;18.128;2022-07-10T06:30:33;4.05;;;3.95;;
10729;SDS011;5416;59.258;18.128;2022-07-10T06:33:00;3.83;;;3.72;;
10729;SDS011;5416;59.258;18.128;2022-07-10T06:35:27;4.70;;;4.53;;
10729;SDS011;5416;59.258;18.128;2022-07-10T06:37:55;4.18;;;4.07;;
10729;SDS011;5416;59.258;18.128;2022-07-10T06:40:22;3.88;;;3.78;;
10729;SDS011;5416;59.258;18.128;2022-07-10T06:42:50;3.92;;;3.83;;
10729;SDS011;5416;59.258;18.128;2022-07-10T06:45:17;4.13;;;4.03;;
10729;SDS011;5416;59.258;18.128;2022-07-10T06:47:45;4.35;;;4.25;;
10729;SDS011;5416;59.258;18.128;2022-07-10T06:50:22;4.50;;;4.40;;
10729;SDS011;5416;59.258;18.128;2022-07-10T06:52:49;4.30;;;4.20;;
10729;SDS011;5416;59.258;18.128;2022-07-10T06:55:17;3.80;;;3.70;;
10729;SDS011;5416;59.258;18.128;2022-07-10T06:57:45;4.00;;;3.90;;
10729;SDS011;5416;59.258;18.128;2022-07-10T07:00:12;3.90;;;3.80;;
10729;SDS011;5416;59.258;18.128;2022-07-10T07:02:40;3.53;;;3.42;;
10729;SDS011;5416;59.258;18.128;2022-07-10T07:05:09;3.50;;;3.40;;
10729;SDS011;5416;59.258;18.128;2022-07-10T07:07:36;3.40;;;3.30;;
10729;SDS011;5416;59.258;18.128;2022-07-10T07:10:04;3.42;;;3.33;;
10729;SDS011;5416;59.258;18.128;2022-07-10T07:12:32;3.40;;;3.30;;
10729;SDS011;5416;59.258;18.128;2022-07-10T07:14:59;3.33;;;3.22;;
10729;SDS011;5416;59.258;18.128;2022-07-10T07:17:26;3.20;;;3.10;;
10729;SDS011;5416;59.258;18.128;2022-07-10T07:19:59;3.40;;;3.30;;
10729;SDS011;5416;59.258;18.128;2022-07-10T07:22:46;3.53;;;3.42;;
10729;SDS011;5416;59.258;18.128;2022-07-10T07:25:33;3.40;;;3.30;;
10729;SDS011;5416;59.258;18.128;2022-07-10T07:28:01;3.60;;;3.50;;
10729;SDS011;5416;59.258;18.128;2022-07-10T07:30:29;3.60;;;3.50;;
10729;SDS011;5416;59.258;18.128;2022-07-10T07:32:56;3.50;;;3.40;;
10729;SDS011;5416;59.258;18.128;2022-07-10T07:35:23;3.70;;;3.60;;
10729;SDS011;5416;59.258;18.128;2022-07-10T07:37:52;3.50;;;3.40;;
10729;SDS011;5416;59.258;18.128;2022-07-10T07:40:20;3.47;;;3.37;;
10729;SDS011;5416;59.258;18.128;2022-07-10T07:42:48;3.45;;;3.35;;
10729;SDS011;5416;59.258;18.128;2022-07-10T07:45:16;3.30;;;3.20;;
10729;SDS011;5416;59.258;18.128;2022-07-10T07:47:44;3.10;;;3.00;;
10729;SDS011;5416;59.258;18.128;2022-07-10T07:50:11;2.97;;;2.88;;
10729;SDS011;5416;59.258;18.128;2022-07-10T07:52:38;2.80;;;2.70;;
10729;SDS011;5416;59.258;18.128;2022-07-10T07:55:08;2.88;;;2.78;;
10729;SDS011;5416;59.258;18.128;2022-07-10T07:57:36;3.00;;;2.90;;
10729;SDS011;5416;59.258;18.128;2022-07-10T08:00:03;3.40;;;3.30;;
10729;SDS011;5416;59.258;18.128;2022-07-10T08:02:31;3.30;;;3.20;;
10729;SDS011;5416;59.258;18.128;2022-07-10T08:04:59;3.15;;;3.05;;
10729;SDS011;5416;59.258;18.128;2022-07-10T08:07:32;3.10;;;3.00;;
10729;SDS011;5416;59.258;18.128;2022-07-10T08:10:00;3.00;;;2.90;;
10729;SDS011;5416;59.258;18.128;2022-07-10T08:12:28;2.65;;;2.55;;
10729;SDS011;5416;59.258;18.128;2022-07-10T08:14:56;2.72;;;2.63;;
10729;SDS011;5416;59.258;18.128;2022-07-10T08:17:23;2.95;;;2.85;;
10729;SDS011;5416;59.258;18.128;2022-07-10T08:19:51;3.47;;;3.38;;
10729;SDS011;5416;59.258;18.128;2022-07-10T08:22:18;3.20;;;3.10;;
10729;SDS011;5416;59.258;18.128;2022-07-10T08:24:45;3.20;;;3.10;;
10729;SDS011;5416;59.258;18.128;2022-07-10T08:27:13;2.90;;;2.80;;
10729;SDS011;5416;59.258;18.128;2022-07-10T08:29:42;2.85;;;2.75;;
10729;SDS011;5416;59.258;18.128;2022-07-10T08:32:09;3.30;;;3.20;;
10729;SDS011;5416;59.258;18.128;2022-07-10T08:34:37;3.20;;;3.10;;
10729;SDS011;5416;59.258;18.128;2022-07-10T08:37:04;3.80;;;3.70;;
10729;SDS011;5416;59.258;18.128;2022-07-10T08:39:31;4.00;;;3.90;;
10729;SDS011;5416;59.258;18.128;2022-07-10T08:41:59;3.92;;;3.83;;
10729;SDS011;5416;59.258;18.128;2022-07-10T08:44:26;3.85;;;3.75;;
10729;SDS011;5416;59.258;18.128;2022-07-10T08:46:55;4.18;;;4.07;;
10729;SDS011;5416;59.258;18.128;2022-07-10T08:49:24;4.20;;;4.10;;
10729;SDS011;5416;59.258;18.128;2022-07-10T08:51:55;4.27;;;4.17;;
10729;SDS011;5416;59.258;18.128;2022-07-10T08:54:25;4.47;;;4.38;;
10729;SDS011;5416;59.258;18.128;2022-07-10T08:56:55;5.10;;;4.90;;
10729;SDS011;5416;59.258;18.128;2022-07-10T08:59:23;4.25;;;4.15;;
10729;SDS011;5416;59.258;18.128;2022-07-10T09:01:50;4.20;;;4.10;;
10729;SDS011;5416;59.258;18.128;2022-07-10T09:04:21;4.65;;;4.50;;
10729;SDS011;5416;59.258;18.128;2022-07-10T09:06:48;4.30;;;4.20;;
10729;SDS011;5416;59.258;18.128;2022-07-10T09:09:16;4.47;;;4.38;;
10729;SDS011;5416;59.258;18.128;2022-07-10T09:11:43;4.13;;;4.03;;
10729;SDS011;5416;59.258;18.128;2022-07-10T09:14:11;4.07;;;3.97;;
10729;SDS011;5416;59.258;18.128;2022-07-10T09:16:41;3.72;;;3.63;;
10729;SDS011;5416;59.258;18.128;2022-07-10T09:19:15;4.57;;;4.45;;
10729;SDS011;5416;59.258;18.128;2022-07-10T09:21:44;4.13;;;4.03;;
10729;SDS011;5416;59.258;18.128;2022-07-10T09:24:12;4.40;;;4.30;;
10729;SDS011;5416;59.258;18.128;2022-07-10T09:26:40;4.10;;;4.00;;
10729;SDS011;5416;59.258;18.128;2022-07-10T09:29:08;4.35;;;4.25;;
10729;SDS011;5416;59.258;18.128;2022-07-10T09:31:48;4.18;;;4.07;;
10729;SDS011;5416;59.258;18.128;2022-07-10T09:34:16;4.47;;;4.38;;
10729;SDS011;5416;59.258;18.128;2022-07-10T09:36:44;4.57;;;4.45;;
10729;SDS011;5416;59.258;18.128;2022-07-10T09:39:12;4.45;;;4.35;;
10729;SDS011;5416;59.258;18.128;2022-07-10T09:41:39;4.22;;;4.13;;
10729;SDS011;5416;59.258;18.128;2022-07-10T09:44:06;3.92;;;3.83;;
10729;SDS011;5416;59.258;18.128;2022-07-10T09:46:35;4.30;;;4.20;;
10729;SDS011;5416;59.258;18.128;2022-07-10T09:49:07;4.28;;;4.18;;
10729;SDS011;5416;59.258;18.128;2022-07-10T09:51:35;4.13;;;4.03;;
10729;SDS011;5416;59.258;18.128;2022-07-10T09:54:04;3.90;;;3.80;;
10729;SDS011;5416;59.258;18.128;2022-07-10T09:56:38;4.13;;;4.03;;
10729;SDS011;5416;59.258;18.128;2022-07-10T09:59:08;4.33;;;4.23;;
10729;SDS011;5416;59.258;18.128;2022-07-10T10:01:36;4.28;;;4.18;;
10729;SDS011;5416;59.258;18.128;2022-07-10T10:04:04;4.37;;;4.27;;
10729;SDS011;5416;59.258;18.128;2022-07-10T10:06:31;4.07;;;3.97;;
10729;SDS011;5416;59.258;18.128;2022-07-10T10:09:03;4.40;;;4.30;;
10729;SDS011;5416;59.258;18.128;2022-07-10T10:11:33;4.13;;;4.03;;
10729;SDS011;5416;59.258;18.128;2022-07-10T10:14:02;4.22;;;4.13;;
10729;SDS011;5416;59.258;18.128;2022-07-10T10:16:29;4.10;;;4.00;;
10729;SDS011;5416;59.258;18.128;2022-07-10T10:18:57;4.10;;;4.00;;
10729;SDS011;5416;59.258;18.128;2022-07-10T10:21:43;4.50;;;4.38;;
10729;SDS011;5416;59.258;18.128;2022-07-10T10:24:10;4.10;;;4.00;;
10729;SDS011;5416;59.258;18.128;2022-07-10T10:26:39;3.80;;;3.70;;
10729;SDS011;5416;59.258;18.128;2022-07-10T10:29:07;4.15;;;4.05;;
10729;SDS011;5416;59.258;18.128;2022-07-10T10:31:35;4.18;;;4.07;;
10729;SDS011;5416;59.258;18.128;2022-07-10T10:34:03;4.05;;;3.95;;
10729;SDS011;5416;59.258;18.128;2022-07-10T10:36:43;3.97;;;3.87;;
10729;SDS011;5416;59.258;18.128;2022-07-10T10:39:11;3.95;;;3.85;;
10729;SDS011;5416;59.258;18.128;2022-07-10T10:41:40;3.78;;;3.67;;
10729;SDS011;5416;59.258;18.128;2022-07-10T10:44:24;3.70;;;3.60;;
10729;SDS011;5416;59.258;18.128;2022-07-10T10:46:57;3.75;;;3.65;;
10729;SDS011;5416;59.258;18.128;2022-07-10T10:52:11;4.00;;;3.90;;
10729;SDS011;5416;59.258;18.128;2022-07-10T10:57:34;4.20;;;4.10;;
10729;SDS011;5416;59.258;18.128;2022-07-10T11:00:05;4.45;;;4.35;;
10729;SDS011;5416;59.258;18.128;2022-07-10T11:02:33;4.53;;;4.43;;
10729;SDS011;5416;59.258;18.128;2022-07-10T11:07:53;4.70;;;4.53;;
10729;SDS011;5416;59.258;18.128;2022-07-10T11:10:27;4.22;;;4.13;;
10729;SDS011;5416;59.258;18.128;2022-07-10T11:12:58;4.28;;;4.18;;
10729;SDS011;5416;59.258;18.128;2022-07-10T11:15:26;4.50;;;4.40;;
10729;SDS011;5416;59.258;18.128;2022-07-10T11:17:55;4.50;;;4.40;;
10729;SDS011;5416;59.258;18.128;2022-07-10T11:20:22;3.92;;;3.83;;
10729;SDS011;5416;59.258;18.128;2022-07-10T11:22:52;4.10;;;4.00;;
10729;SDS011;5416;59.258;18.128;2022-07-10T11:25:27;4.38;;;4.28;;
10729;SDS011;5416;59.258;18.128;2022-07-10T11:28:07;4.15;;;4.05;;
10729;SDS011;5416;59.258;18.128;2022-07-10T11:33:20;4.13;;;4.03;;
10729;SDS011;5416;59.258;18.128;2022-07-10T11:35:48;4.05;;;3.95;;
10729;SDS011;5416;59.258;18.128;2022-07-10T11:38:19;3.78;;;3.67;;
10729;SDS011;5416;59.258;18.128;2022-07-10T11:40:47;3.88;;;3.78;;
10729;SDS011;5416;59.258;18.128;2022-07-10T11:43:16;3.90;;;3.80;;
10729;SDS011;5416;59.258;18.128;2022-07-10T11:45:47;3.97;;;3.88;;
10729;SDS011;5416;59.258;18.128;2022-07-10T11:48:18;4.20;;;4.10;;
10729;SDS011;5416;59.258;18.128;2022-07-10T11:50:45;4.18;;;4.07;;
10729;SDS011;5416;59.258;18.128;2022-07-10T11:53:12;4.22;;;4.13;;
10729;SDS011;5416;59.258;18.128;2022-07-10T11:55:40;4.20;;;4.10;;
10729;SDS011;5416;59.258;18.128;2022-07-10T11:58:14;4.73;;;4.53;;
10729;SDS011;5416;59.258;18.128;2022-07-10T12:00:43;4.32;;;4.22;;
10729;SDS011;5416;59.258;18.128;2022-07-10T12:03:17;4.30;;;4.20;;
10729;SDS011;5416;59.258;18.128;2022-07-10T12:05:46;4.28;;;4.18;;
10729;SDS011;5416;59.258;18.128;2022-07-10T12:08:13;4.22;;;4.13;;
10729;SDS011;5416;59.258;18.128;2022-07-10T12:10:41;4.90;;;4.70;;
10729;SDS011;5416;59.258;18.128;2022-07-10T12:13:10;4.78;;;4.57;;
10729;SDS011;5416;59.258;18.128;2022-07-10T12:15:38;4.75;;;4.57;;
10729;SDS011;5416;59.258;18.128;2022-07-10T12:18:08;4.30;;;4.20;;
10729;SDS011;5416;59.258;18.128;2022-07-10T12:20:35;4.57;;;4.47;;
10729;SDS011;5416;59.258;18.128;2022-07-10T12:23:07;3.97;;;3.88;;
10729;SDS011;5416;59.258;18.128;2022-07-10T12:25:35;4.20;;;4.10;;
10729;SDS011;5416;59.258;18.128;2022-07-10T12:28:03;4.30;;;4.20;;
10729;SDS011;5416;59.258;18.128;2022-07-10T12:30:37;4.30;;;4.20;;
10729;SDS011;5416;59.258;18.128;2022-07-10T12:33:12;4.15;;;4.05;;
10729;SDS011;5416;59.258;18.128;2022-07-10T12:35:46;4.05;;;3.95;;
10729;SDS011;5416;59.258;18.128;2022-07-10T12:38:14;4.05;;;3.95;;
10729;SDS011;5416;59.258;18.128;2022-07-10T12:40:42;4.30;;;4.20;;
10729;SDS011;5416;59.258;18.128;2022-07-10T12:43:09;3.80;;;3.70;;
10729;SDS011;5416;59.258;18.128;2022-07-10T12:45:37;4.10;;;4.00;;
10729;SDS011;5416;59.258;18.128;2022-07-10T12:48:05;4.10;;;4.00;;
10729;SDS011;5416;59.258;18.128;2022-07-10T12:50:33;3.90;;;3.80;;
10729;SDS011;5416;59.258;18.128;2022-07-10T12:53:08;4.30;;;4.20;;
10729;SDS011;5416;59.258;18.128;2022-07-10T12:55:36;3.80;;;3.70;;
10729;SDS011;5416;59.258;18.128;2022-07-10T12:58:05;4.18;;;4.07;;
10729;SDS011;5416;59.258;18.128;2022-07-10T13:00:34;4.03;;;3.93;;
10729;SDS011;5416;59.258;18.128;2022-07-10T13:03:02;4.20;;;4.10;;
10729;SDS011;5416;59.258;18.128;2022-07-10T13:05:30;3.83;;;3.73;;
10729;SDS011;5416;59.258;18.128;2022-07-10T13:08:06;4.20;;;4.10;;
10729;SDS011;5416;59.258;18.128;2022-07-10T13:10:35;4.00;;;3.90;;
10729;SDS011;5416;59.258;18.128;2022-07-10T13:13:02;4.10;;;4.00;;
10729;SDS011;5416;59.258;18.128;2022-07-10T13:15:30;4.22;;;4.13;;
10729;SDS011;5416;59.258;18.128;2022-07-10T13:17:59;4.05;;;3.95;;
10729;SDS011;5416;59.258;18.128;2022-07-10T13:20:27;4.20;;;4.10;;
10729;SDS011;5416;59.258;18.128;2022-07-10T13:22:54;4.35;;;4.25;;
10729;SDS011;5416;59.258;18.128;2022-07-10T13:25:22;4.25;;;4.15;;
10729;SDS011;5416;59.258;18.128;2022-07-10T13:27:50;4.80;;;4.60;;
10729;SDS011;5416;59.258;18.128;2022-07-10T13:30:17;5.10;;;4.90;;
10729;SDS011;5416;59.258;18.128;2022-07-10T13:32:44;4.30;;;4.20;;
10729;SDS011;5416;59.258;18.128;2022-07-10T13:35:12;4.32;;;4.22;;
10729;SDS011;5416;59.258;18.128;2022-07-10T13:37:39;4.18;;;4.07;;
10729;SDS011;5416;59.258;18.128;2022-07-10T13:40:07;4.30;;;4.20;;
10729;SDS011;5416;59.258;18.128;2022-07-10T13:42:36;4.05;;;3.95;;
10729;SDS011;5416;59.258;18.128;2022-07-10T13:45:03;4.30;;;4.20;;
10729;SDS011;5416;59.258;18.128;2022-07-10T13:47:31;4.40;;;4.30;;
10729;SDS011;5416;59.258;18.128;2022-07-10T13:49:58;4.40;;;4.30;;
10729;SDS011;5416;59.258;18.128;2022-07-10T13:52:26;4.00;;;3.90;;
10729;SDS011;5416;59.258;18.128;2022-07-10T13:54:53;4.15;;;4.05;;
10729;SDS011;5416;59.258;18.128;2022-07-10T13:57:20;4.35;;;4.25;;
10729;SDS011;5416;59.258;18.128;2022-07-10T13:59:49;4.25;;;4.15;;
10729;SDS011;5416;59.258;18.128;2022-07-10T14:02:16;4.55;;;4.45;;
10729;SDS011;5416;59.258;18.128;2022-07-10T14:04:43;4.10;;;4.00;;
10729;SDS011;5416;59.258;18.128;2022-07-10T14:07:11;3.90;;;3.80;;
10729;SDS011;5416;59.258;18.128;2022-07-10T14:09:38;4.40;;;4.30;;
10729;SDS011;5416;59.258;18.128;2022-07-10T14:12:06;4.80;;;4.60;;
10729;SDS011;5416;59.258;18.128;2022-07-10T14:14:33;4.10;;;4.00;;
10729;SDS011;5416;59.258;18.128;2022-07-10T14:17:02;4.22;;;4.13;;
10729;SDS011;5416;59.258;18.128;2022-07-10T14:19:29;4.55;;;4.45;;
10729;SDS011;5416;59.258;18.128;2022-07-10T14:21:57;4.22;;;4.13;;
10729;SDS011;5416;59.258;18.128;2022-07-10T14:24:24;4.07;;;3.97;;
10729;SDS011;5416;59.258;18.128;2022-07-10T14:26:52;4.32;;;4.22;;
10729;SDS011;5416;59.258;18.128;2022-07-10T14:29:19;4.22;;;4.13;;
10729;SDS011;5416;59.258;18.128;2022-07-10T14:31:47;4.30;;;4.20;;
10729;SDS011;5416;59.258;18.128;2022-07-10T14:34:15;4.10;;;4.00;;
10729;SDS011;5416;59.258;18.128;2022-07-10T14:36:43;4.10;;;4.00;;
10729;SDS011;5416;59.258;18.128;2022-07-10T14:39:10;3.80;;;3.70;;
10729;SDS011;5416;59.258;18.128;2022-07-10T14:41:37;4.47;;;4.38;;
10729;SDS011;5416;59.258;18.128;2022-07-10T14:44:05;4.00;;;3.90;;
10729;SDS011;5416;59.258;18.128;2022-07-10T14:46:32;4.30;;;4.20;;
10729;SDS011;5416;59.258;18.128;2022-07-10T14:48:59;4.30;;;4.20;;
10729;SDS011;5416;59.258;18.128;2022-07-10T14:51:28;3.83;;;3.72;;
10729;SDS011;5416;59.258;18.128;2022-07-10T14:53:55;4.32;;;4.22;;
10729;SDS011;5416;59.258;18.128;2022-07-10T14:56:23;4.00;;;3.90;;
10729;SDS011;5416;59.258;18.128;2022-07-10T14:58:50;3.90;;;3.80;;
10729;SDS011;5416;59.258;18.128;2022-07-10T15:01:17;4.50;;;4.40;;
10729;SDS011;5416;59.258;18.128;2022-07-10T15:03:45;4.07;;;3.97;;
10729;SDS011;5416;59.258;18.128;2022-07-10T15:06:12;3.85;;;3.75;;